sensor_id;sensor_type;location;lat;lon;timestamp;pressure;altitude;pressure_sealevel;temperature;humidity
9474;BME280;8865;47.636;7.692;2022-11-15T00:00:28;98170.06;;;9.58;100.00
9474;BME280;8865;47.636;7.692;2022-11-15T00:02:56;98167.44;;;9.58;100.00
9474;BME280;8865;47.636;7.692;2022-11-15T00:05:21;98158.38;;;9.62;100.00
9474;BME280;8865;47.636;7.692;2022-11-15T00:07:47;98167.56;;;9.56;100.00
9474;BME280;8865;47.636;7.692;2022-11-15T00:10:13;98164.00;;;9.57;100.00
9474;BME280;8865;47.636;7.692;2022-11-15T00:12:39;98156.16;;;9.57;100.00
9474;BME280;8865;47.636;7.692;2022-11-15T00:15:06;98154.63;;;9.55;100.00
9474;BME280;8865;47.636;7.692;2022-11-15T00:17:32;98148.84;;;9.51;100.00
9474;BME280;8865;47.636;7.692;2022-11-15T00:19:58;98153.13;;;9.52;100.00
9474;BME280;8865;47.636;7.692;2022-11-15T00:22:24;98147.38;;;9.58;100.00
9474;BME280;8865;47.636;7.692;2022-11-15T00:24:50;98155.47;;;9.55;100.00
9474;BME280;8865;47.636;7.692;2022-11-15T00:27:16;98142.41;;;9.55;100.00
9474;BME280;8865;47.636;7.692;2022-11-15T00:29:42;98132.19;;;9.52;100.00
9474;BME280;8865;47.636;7.692;2022-11-15T00:32:09;98131.47;;;9.50;100.00
9474;BME280;8865;47.636;7.692;2022-11-15T00:34:36;98124.47;;;9.51;100.00
9474;BME280;8865;47.636;7.692;2022-11-15T00:37:02;98133.56;;;9.56;100.00
9474;BME280;8865;47.636;7.692;2022-11-15T00:39:28;98123.13;;;9.56;100.00
9474;BME280;8865;47.636;7.692;2022-11-15T00:41:54;98123.97;;;9.57;100.00
9474;BME280;8865;47.636;7.692;2022-11-15T00:44:19;98119.56;;;9.57;100.00
9474;BME280;8865;47.636;7.692;2022-11-15T00:46:45;98114.06;;;9.60;100.00
9474;BME280;8865;47.636;7.692;2022-11-15T00:49:11;98109.66;;;9.61;100.00
9474;BME280;8865;47.636;7.692;2022-11-15T00:51:37;98113.81;;;9.63;100.00
9474;BME280;8865;47.636;7.692;2022-11-15T00:54:03;98123.88;;;9.68;100.00
9474;BME280;8865;47.636;7.692;2022-11-15T00:56:29;98127.31;;;9.69;100.00
9474;BME280;8865;47.636;7.692;2022-11-15T00:58:55;98121.66;;;9.63;100.00
9474;BME280;8865;47.636;7.692;2022-11-15T01:01:21;98110.81;;;9.68;100.00
9474;BME280;8865;47.636;7.692;2022-11-15T01:03:47;98114.50;;;9.65;100.00
9474;BME280;8865;47.636;7.692;2022-11-15T01:06:13;98117.97;;;9.66;100.00
9474;BME280;8865;47.636;7.692;2022-11-15T01:08:40;98112.47;;;9.69;100.00
9474;BME280;8865;47.636;7.692;2022-11-15T01:11:08;98120.31;;;9.69;100.00
9474;BME280;8865;47.636;7.692;2022-11-15T01:13:36;98109.84;;;9.69;100.00
9474;BME280;8865;47.636;7.692;2022-11-15T01:16:07;98106.97;;;9.72;100.00
9474;BME280;8865;47.636;7.692;2022-11-15T01:18:33;98100.91;;;9.72;100.00
9474;BME280;8865;47.636;7.692;2022-11-15T01:20:59;98103.25;;;9.75;100.00
9474;BME280;8865;47.636;7.692;2022-11-15T01:23:25;98101.09;;;9.80;100.00
9474;BME280;8865;47.636;7.692;2022-11-15T01:25:51;98092.66;;;9.76;100.00
9474;BME280;8865;47.636;7.692;2022-11-15T01:28:17;98091.72;;;9.77;100.00
9474;BME280;8865;47.636;7.692;2022-11-15T01:30:43;98085.53;;;9.78;100.00
9474;BME280;8865;47.636;7.692;2022-11-15T01:33:08;98081.13;;;9.79;100.00
9474;BME280;8865;47.636;7.692;2022-11-15T01:35:38;98076.16;;;9.76;100.00
9474;BME280;8865;47.636;7.692;2022-11-15T01:38:04;98074.75;;;9.72;100.00
9474;BME280;8865;47.636;7.692;2022-11-15T01:40:30;98075.00;;;9.69;100.00
9474;BME280;8865;47.636;7.692;2022-11-15T01:42:56;98079.44;;;9.68;100.00
9474;BME280;8865;47.636;7.692;2022-11-15T01:45:22;98078.34;;;9.71;100.00
9474;BME280;8865;47.636;7.692;2022-11-15T01:47:51;98078.34;;;9.71;100.00
9474;BME280;8865;47.636;7.692;2022-11-15T01:50:25;98075.34;;;9.75;100.00
9474;BME280;8865;47.636;7.692;2022-11-15T01:52:53;98080.44;;;9.77;100.00
9474;BME280;8865;47.636;7.692;2022-11-15T01:55:25;98074.22;;;9.78;100.00
9474;BME280;8865;47.636;7.692;2022-11-15T01:57:56;98080.03;;;9.81;100.00
9474;BME280;8865;47.636;7.692;2022-11-15T02:00:22;98067.66;;;9.83;100.00
9474;BME280;8865;47.636;7.692;2022-11-15T02:02:48;98069.44;;;9.83;100.00
9474;BME280;8865;47.636;7.692;2022-11-15T02:05:15;98073.13;;;9.80;100.00
9474;BME280;8865;47.636;7.692;2022-11-15T02:07:40;98080.84;;;9.82;100.00
9474;BME280;8865;47.636;7.692;2022-11-15T02:10:13;98084.75;;;9.88;100.00
9474;BME280;8865;47.636;7.692;2022-11-15T02:12:40;98065.19;;;9.92;100.00
9474;BME280;8865;47.636;7.692;2022-11-15T02:15:08;98055.84;;;9.89;100.00
9474;BME280;8865;47.636;7.692;2022-11-15T02:17:58;98052.94;;;9.92;100.00
9474;BME280;8865;47.636;7.692;2022-11-15T02:25:40;98046.88;;;9.92;100.00
9474;BME280;8865;47.636;7.692;2022-11-15T02:28:23;98049.34;;;9.93;100.00
9474;BME280;8865;47.636;7.692;2022-11-15T02:30:59;98051.97;;;9.93;100.00
9474;BME280;8865;47.636;7.692;2022-11-15T02:33:59;98043.16;;;9.94;100.00
9474;BME280;8865;47.636;7.692;2022-11-15T02:42:21;98035.59;;;9.91;100.00
9474;BME280;8865;47.636;7.692;2022-11-15T02:45:09;98035.31;;;9.94;100.00
9474;BME280;8865;47.636;7.692;2022-11-15T02:47:43;98031.56;;;9.87;100.00
9474;BME280;8865;47.636;7.692;2022-11-15T02:50:16;98022.91;;;9.87;100.00
9474;BME280;8865;47.636;7.692;2022-11-15T02:52:48;98033.25;;;9.88;100.00
9474;BME280;8865;47.636;7.692;2022-11-15T02:55:35;98028.00;;;9.88;100.00
9474;BME280;8865;47.636;7.692;2022-11-15T03:07:24;98029.28;;;10.04;100.00
9474;BME280;8865;47.636;7.692;2022-11-15T03:10:00;98024.72;;;9.96;100.00
9474;BME280;8865;47.636;7.692;2022-11-15T03:15:12;98004.06;;;9.93;100.00
9474;BME280;8865;47.636;7.692;2022-11-15T03:17:55;98009.44;;;9.91;100.00
9474;BME280;8865;47.636;7.692;2022-11-15T03:20:25;98010.50;;;9.89;100.00
9474;BME280;8865;47.636;7.692;2022-11-15T03:22:54;98013.97;;;9.89;100.00
9474;BME280;8865;47.636;7.692;2022-11-15T03:25:24;98012.03;;;9.91;100.00
9474;BME280;8865;47.636;7.692;2022-11-15T03:27:52;98004.88;;;9.93;100.00
9474;BME280;8865;47.636;7.692;2022-11-15T03:30:20;98002.25;;;9.93;100.00
9474;BME280;8865;47.636;7.692;2022-11-15T03:32:50;98009.44;;;9.91;100.00
9474;BME280;8865;47.636;7.692;2022-11-15T03:35:22;98005.41;;;9.87;100.00
9474;BME280;8865;47.636;7.692;2022-11-15T03:40:42;97993.47;;;9.94;100.00
9474;BME280;8865;47.636;7.692;2022-11-15T03:46:16;97998.69;;;9.85;100.00
9474;BME280;8865;47.636;7.692;2022-11-15T03:48:50;97997.03;;;9.83;100.00
9474;BME280;8865;47.636;7.692;2022-11-15T03:51:18;97983.25;;;9.81;100.00
9474;BME280;8865;47.636;7.692;2022-11-15T03:53:45;97984.75;;;9.84;100.00
9474;BME280;8865;47.636;7.692;2022-11-15T03:56:11;97984.63;;;9.86;100.00
9474;BME280;8865;47.636;7.692;2022-11-15T03:58:37;97989.84;;;9.86;100.00
9474;BME280;8865;47.636;7.692;2022-11-15T04:01:03;97982.84;;;9.86;100.00
9474;BME280;8865;47.636;7.692;2022-11-15T04:03:29;97991.25;;;9.80;100.00
9474;BME280;8865;47.636;7.692;2022-11-15T04:05:55;97991.66;;;9.75;100.00
9474;BME280;8865;47.636;7.692;2022-11-15T04:08:21;97995.06;;;9.66;100.00
9474;BME280;8865;47.636;7.692;2022-11-15T04:10:48;97990.38;;;9.70;100.00
9474;BME280;8865;47.636;7.692;2022-11-15T04:13:14;97985.00;;;9.71;100.00
9474;BME280;8865;47.636;7.692;2022-11-15T04:15:40;97984.34;;;9.69;100.00
9474;BME280;8865;47.636;7.692;2022-11-15T04:18:06;97994.38;;;9.74;100.00
9474;BME280;8865;47.636;7.692;2022-11-15T04:20:32;97982.13;;;9.74;100.00
9474;BME280;8865;47.636;7.692;2022-11-15T04:23:19;97991.06;;;9.72;100.00
9474;BME280;8865;47.636;7.692;2022-11-15T04:26:14;97985.56;;;9.75;100.00
9474;BME280;8865;47.636;7.692;2022-11-15T04:28:41;97979.50;;;9.74;100.00
9474;BME280;8865;47.636;7.692;2022-11-15T04:31:26;97974.84;;;9.78;100.00
9474;BME280;8865;47.636;7.692;2022-11-15T04:33:53;97979.78;;;9.81;100.00
9474;BME280;8865;47.636;7.692;2022-11-15T04:36:20;97976.22;;;9.82;100.00
9474;BME280;8865;47.636;7.692;2022-11-15T04:39:04;97973.06;;;9.78;100.00
9474;BME280;8865;47.636;7.692;2022-11-15T04:41:30;97972.09;;;9.79;100.00
9474;BME280;8865;47.636;7.692;2022-11-15T04:43:56;97976.78;;;9.86;100.00
9474;BME280;8865;47.636;7.692;2022-11-15T04:46:23;97968.53;;;9.80;100.00
9474;BME280;8865;47.636;7.692;2022-11-15T04:48:50;97970.44;;;9.78;100.00
9474;BME280;8865;47.636;7.692;2022-11-15T04:51:16;97970.19;;;9.81;100.00
9474;BME280;8865;47.636;7.692;2022-11-15T04:53:42;97960.13;;;9.77;100.00
9474;BME280;8865;47.636;7.692;2022-11-15T04:56:08;97968.25;;;9.74;100.00
9474;BME280;8865;47.636;7.692;2022-11-15T04:58:34;97957.06;;;9.72;100.00
9474;BME280;8865;47.636;7.692;2022-11-15T05:01:14;97960.41;;;9.74;100.00
9474;BME280;8865;47.636;7.692;2022-11-15T05:03:43;97964.38;;;9.78;100.00
9474;BME280;8865;47.636;7.692;2022-11-15T05:06:29;97958.59;;;9.84;100.00
9474;BME280;8865;47.636;7.692;2022-11-15T05:08:56;97956.97;;;9.83;100.00
9474;BME280;8865;47.636;7.692;2022-11-15T05:11:22;97964.69;;;9.85;100.00
9474;BME280;8865;47.636;7.692;2022-11-15T05:13:48;97950.75;;;9.84;100.00
9474;BME280;8865;47.636;7.692;2022-11-15T05:16:14;97950.63;;;9.86;100.00
9474;BME280;8865;47.636;7.692;2022-11-15T05:18:40;97945.66;;;9.82;100.00
9474;BME280;8865;47.636;7.692;2022-11-15T05:21:09;97949.13;;;9.83;100.00
9474;BME280;8865;47.636;7.692;2022-11-15T05:23:35;97956.00;;;9.84;100.00
9474;BME280;8865;47.636;7.692;2022-11-15T05:26:03;97941.97;;;9.85;100.00
9474;BME280;8865;47.636;7.692;2022-11-15T05:28:29;97945.53;;;9.84;100.00
9474;BME280;8865;47.636;7.692;2022-11-15T05:33:27;97943.31;;;9.79;100.00
9474;BME280;8865;47.636;7.692;2022-11-15T05:36:02;97935.34;;;9.81;100.00
9474;BME280;8865;47.636;7.692;2022-11-15T05:38:29;97940.28;;;9.74;100.00
9474;BME280;8865;47.636;7.692;2022-11-15T05:40:56;97939.28;;;9.65;100.00
9474;BME280;8865;47.636;7.692;2022-11-15T05:43:22;97940.69;;;9.70;100.00
9474;BME280;8865;47.636;7.692;2022-11-15T05:45:49;97937.13;;;9.71;100.00
9474;BME280;8865;47.636;7.692;2022-11-15T05:48:15;97933.53;;;9.72;100.00
9474;BME280;8865;47.636;7.692;2022-11-15T05:50:43;97931.34;;;9.77;100.00
9474;BME280;8865;47.636;7.692;2022-11-15T05:53:13;97926.66;;;9.71;100.00
9474;BME280;8865;47.636;7.692;2022-11-15T05:55:40;97928.31;;;9.72;100.00
9474;BME280;8865;47.636;7.692;2022-11-15T05:58:07;97924.72;;;9.73;100.00
9474;BME280;8865;47.636;7.692;2022-11-15T06:00:33;97920.59;;;9.70;100.00
9474;BME280;8865;47.636;7.692;2022-11-15T06:02:59;97925.00;;;9.70;100.00
9474;BME280;8865;47.636;7.692;2022-11-15T06:05:25;97924.72;;;9.73;100.00
9474;BME280;8865;47.636;7.692;2022-11-15T06:07:51;97922.25;;;9.71;100.00
9474;BME280;8865;47.636;7.692;2022-11-15T06:10:17;97924.47;;;9.66;100.00
9474;BME280;8865;47.636;7.692;2022-11-15T06:12:43;97920.03;;;9.67;100.00
9474;BME280;8865;47.636;7.692;2022-11-15T06:15:09;97915.63;;;9.67;100.00
9474;BME280;8865;47.636;7.692;2022-11-15T06:17:35;97923.34;;;9.69;100.00
9474;BME280;8865;47.636;7.692;2022-11-15T06:20:01;97920.59;;;9.70;100.00
9474;BME280;8865;47.636;7.692;2022-11-15T06:22:27;97918.81;;;9.71;100.00
9474;BME280;8865;47.636;7.692;2022-11-15T06:24:53;97918.94;;;9.69;100.00
9474;BME280;8865;47.636;7.692;2022-11-15T06:27:19;97908.63;;;9.68;100.00
9474;BME280;8865;47.636;7.692;2022-11-15T06:29:45;97903.25;;;9.69;100.00
9474;BME280;8865;47.636;7.692;2022-11-15T06:32:11;97909.72;;;9.75;100.00
9474;BME280;8865;47.636;7.692;2022-11-15T06:34:37;97915.66;;;9.77;100.00
9474;BME280;8865;47.636;7.692;2022-11-15T06:37:03;97925.28;;;9.76;100.00
9474;BME280;8865;47.636;7.692;2022-11-15T06:39:29;97919.50;;;9.73;100.00
9474;BME280;8865;47.636;7.692;2022-11-15T06:41:55;97913.03;;;9.77;100.00
9474;BME280;8865;47.636;7.692;2022-11-15T06:44:21;97916.34;;;9.79;100.00
9474;BME280;8865;47.636;7.692;2022-11-15T06:46:47;97914.41;;;9.81;100.00
9474;BME280;8865;47.636;7.692;2022-11-15T06:49:13;97920.06;;;9.86;100.00
9474;BME280;8865;47.636;7.692;2022-11-15T06:51:39;97919.81;;;9.89;100.00
9474;BME280;8865;47.636;7.692;2022-11-15T06:54:05;97922.16;;;9.92;100.00
9474;BME280;8865;47.636;7.692;2022-11-15T06:56:31;97917.59;;;9.94;100.00
9474;BME280;8865;47.636;7.692;2022-11-15T06:58:57;97919.13;;;9.97;100.00
9474;BME280;8865;47.636;7.692;2022-11-15T07:01:23;97925.03;;;9.99;100.00
9474;BME280;8865;47.636;7.692;2022-11-15T07:03:49;97928.47;;;9.99;100.00
9474;BME280;8865;47.636;7.692;2022-11-15T07:06:14;97923.38;;;9.98;100.00
9474;BME280;8865;47.636;7.692;2022-11-15T07:08:40;97915.97;;;10.03;100.00
9474;BME280;8865;47.636;7.692;2022-11-15T07:11:08;97923.22;;;9.99;100.00
9474;BME280;8865;47.636;7.692;2022-11-15T07:13:35;97921.34;;;10.01;100.00
9474;BME280;8865;47.636;7.692;2022-11-15T07:16:07;97918.84;;;10.00;100.00
9474;BME280;8865;47.636;7.692;2022-11-15T07:18:37;97912.34;;;10.04;100.00
9474;BME280;8865;47.636;7.692;2022-11-15T07:21:05;97917.03;;;10.10;100.00
9474;BME280;8865;47.636;7.692;2022-11-15T07:23:31;97919.00;;;9.98;100.00
9474;BME280;8865;47.636;7.692;2022-11-15T07:25:58;97916.78;;;10.04;100.00
9474;BME280;8865;47.636;7.692;2022-11-15T07:28:28;97921.72;;;10.07;100.00
9474;BME280;8865;47.636;7.692;2022-11-15T07:30:54;97910.19;;;10.09;100.00
9474;BME280;8865;47.636;7.692;2022-11-15T07:33:20;97911.66;;;10.12;100.00
9474;BME280;8865;47.636;7.692;2022-11-15T07:35:46;97917.63;;;10.14;100.00
9474;BME280;8865;47.636;7.692;2022-11-15T07:38:16;97906.56;;;10.10;100.00
9474;BME280;8865;47.636;7.692;2022-11-15T07:40:45;97911.00;;;10.10;100.00
9474;BME280;8865;47.636;7.692;2022-11-15T07:43:12;97911.81;;;10.10;100.00
9474;BME280;8865;47.636;7.692;2022-11-15T07:45:43;97920.09;;;10.15;100.00
9474;BME280;8865;47.636;7.692;2022-11-15T07:48:09;97913.88;;;10.16;100.00
9474;BME280;8865;47.636;7.692;2022-11-15T07:50:35;97916.78;;;10.13;100.00
9474;BME280;8865;47.636;7.692;2022-11-15T07:53:01;97919.25;;;10.15;100.00
9474;BME280;8865;47.636;7.692;2022-11-15T07:55:27;97925.06;;;10.18;100.00
9474;BME280;8865;47.636;7.692;2022-11-15T07:58:06;97916.34;;;10.18;100.00
9474;BME280;8865;47.636;7.692;2022-11-15T08:00:33;97918.69;;;10.21;100.00
9474;BME280;8865;47.636;7.692;2022-11-15T08:03:06;97919.25;;;10.15;100.00
9474;BME280;8865;47.636;7.692;2022-11-15T08:05:33;97918.97;;;10.18;100.00
9474;BME280;8865;47.636;7.692;2022-11-15T08:08:00;97920.34;;;10.22;100.00
9474;BME280;8865;47.636;7.692;2022-11-15T08:10:27;97924.50;;;10.25;100.00
9474;BME280;8865;47.636;7.692;2022-11-15T08:12:59;97919.94;;;10.27;100.00
9474;BME280;8865;47.636;7.692;2022-11-15T08:15:26;97919.00;;;10.28;100.00
9474;BME280;8865;47.636;7.692;2022-11-15T08:17:57;97917.59;;;10.24;100.00
9474;BME280;8865;47.636;7.692;2022-11-15T08:20:24;97915.13;;;10.22;100.00
9474;BME280;8865;47.636;7.692;2022-11-15T08:22:51;97917.06;;;10.20;100.00
9474;BME280;8865;47.636;7.692;2022-11-15T08:25:17;97910.16;;;10.19;100.00
9474;BME280;8865;47.636;7.692;2022-11-15T08:27:43;97915.94;;;10.23;100.00
9474;BME280;8865;47.636;7.692;2022-11-15T08:30:10;97915.41;;;10.19;100.00
9474;BME280;8865;47.636;7.692;2022-11-15T08:32:36;97908.94;;;10.23;100.00
9474;BME280;8865;47.636;7.692;2022-11-15T08:35:03;97916.22;;;10.29;100.00
9474;BME280;8865;47.636;7.692;2022-11-15T08:37:29;97907.84;;;10.35;100.00
9474;BME280;8865;47.636;7.692;2022-11-15T08:39:55;97913.47;;;10.41;100.00
9474;BME280;8865;47.636;7.692;2022-11-15T08:42:21;97911.53;;;10.43;100.00
9474;BME280;8865;47.636;7.692;2022-11-15T08:44:47;97907.00;;;10.45;100.00
9474;BME280;8865;47.636;7.692;2022-11-15T08:47:13;97895.56;;;10.46;100.00
9474;BME280;8865;47.636;7.692;2022-11-15T08:49:39;97899.84;;;10.47;100.00
9474;BME280;8865;47.636;7.692;2022-11-15T08:52:05;97899.56;;;10.40;100.00
9474;BME280;8865;47.636;7.692;2022-11-15T08:54:31;97895.41;;;10.47;100.00
9474;BME280;8865;47.636;7.692;2022-11-15T08:56:57;97890.19;;;10.47;100.00
9474;BME280;8865;47.636;7.692;2022-11-15T08:59:23;97889.09;;;10.50;100.00
9474;BME280;8865;47.636;7.692;2022-11-15T09:01:49;97891.16;;;10.46;100.00
9474;BME280;8865;47.636;7.692;2022-11-15T09:04:15;97892.38;;;10.52;100.00
9474;BME280;8865;47.636;7.692;2022-11-15T09:06:41;97879.84;;;10.56;100.00
9474;BME280;8865;47.636;7.692;2022-11-15T09:09:07;97882.19;;;10.59;100.00
9474;BME280;8865;47.636;7.692;2022-11-15T09:11:34;97887.81;;;10.64;100.00
9474;BME280;8865;47.636;7.692;2022-11-15T09:13:59;97882.72;;;10.72;100.00
9474;BME280;8865;47.636;7.692;2022-11-15T09:16:25;97877.72;;;10.79;100.00
9474;BME280;8865;47.636;7.692;2022-11-15T09:18:53;97875.75;;;10.81;100.00
9474;BME280;8865;47.636;7.692;2022-11-15T09:21:19;97863.47;;;10.91;100.00
9474;BME280;8865;47.636;7.692;2022-11-15T09:23:45;97862.06;;;10.97;100.00
9474;BME280;8865;47.636;7.692;2022-11-15T09:26:11;97858.75;;;10.95;100.00
9474;BME280;8865;47.636;7.692;2022-11-15T09:28:37;97858.03;;;11.02;100.00
9474;BME280;8865;47.636;7.692;2022-11-15T09:31:05;97864.78;;;11.05;100.00
9474;BME280;8865;47.636;7.692;2022-11-15T09:33:31;97856.63;;;11.08;100.00
9474;BME280;8865;47.636;7.692;2022-11-15T09:36:06;97856.47;;;11.10;100.00
9474;BME280;8865;47.636;7.692;2022-11-15T09:38:32;97860.47;;;11.14;100.00
9474;BME280;8865;47.636;7.692;2022-11-15T09:46:22;97862.41;;;11.12;100.00
9474;BME280;8865;47.636;7.692;2022-11-15T09:51:30;97870.22;;;11.21;100.00
9474;BME280;8865;47.636;7.692;2022-11-15T09:56:37;97869.34;;;11.31;100.00
9474;BME280;8865;47.636;7.692;2022-11-15T09:59:33;97848.72;;;11.18;100.00
9474;BME280;8865;47.636;7.692;2022-11-15T10:04:59;97842.53;;;11.37;100.00
9474;BME280;8865;47.636;7.692;2022-11-15T10:07:31;97851.75;;;11.41;100.00
9474;BME280;8865;47.636;7.692;2022-11-15T10:10:02;97857.91;;;11.50;100.00
9474;BME280;8865;47.636;7.692;2022-11-15T10:12:30;97850.03;;;11.50;100.00
9474;BME280;8865;47.636;7.692;2022-11-15T10:15:11;97848.78;;;11.54;100.00
9474;BME280;8865;47.636;7.692;2022-11-15T10:20:25;97827.50;;;11.57;100.00
9474;BME280;8865;47.636;7.692;2022-11-15T10:23:05;97821.88;;;11.52;100.00
9474;BME280;8865;47.636;7.692;2022-11-15T10:25:34;97820.91;;;11.53;100.00
9474;BME280;8865;47.636;7.692;2022-11-15T10:30:45;97802.34;;;11.64;100.00
9474;BME280;8865;47.636;7.692;2022-11-15T10:35:43;97793.25;;;11.94;100.00
9474;BME280;8865;47.636;7.692;2022-11-15T10:38:10;97792.50;;;12.02;100.00
9474;BME280;8865;47.636;7.692;2022-11-15T10:40:38;97792.47;;;12.20;100.00
9474;BME280;8865;47.636;7.692;2022-11-15T10:43:13;97793.69;;;12.34;100.00
9474;BME280;8865;47.636;7.692;2022-11-15T10:45:40;97782.72;;;12.39;100.00
9474;BME280;8865;47.636;7.692;2022-11-15T10:50:42;97775.56;;;12.49;100.00
9474;BME280;8865;47.636;7.692;2022-11-15T10:53:41;97775.59;;;12.57;100.00
9474;BME280;8865;47.636;7.692;2022-11-15T10:56:13;97769.88;;;12.62;100.00
9474;BME280;8865;47.636;7.692;2022-11-15T10:58:49;97760.81;;;12.56;100.00
9474;BME280;8865;47.636;7.692;2022-11-15T11:01:19;97753.56;;;12.50;100.00
9474;BME280;8865;47.636;7.692;2022-11-15T11:06:28;97741.59;;;12.56;100.00
9474;BME280;8865;47.636;7.692;2022-11-15T11:09:03;97735.53;;;12.55;100.00
9474;BME280;8865;47.636;7.692;2022-11-15T11:14:21;97733.63;;;12.65;100.00
9474;BME280;8865;47.636;7.692;2022-11-15T11:20:10;97707.69;;;12.71;100.00
9474;BME280;8865;47.636;7.692;2022-11-15T11:25:35;97697.13;;;12.62;100.00
9474;BME280;8865;47.636;7.692;2022-11-15T11:36:13;97683.50;;;12.59;100.00
9474;BME280;8865;47.636;7.692;2022-11-15T11:41:38;97661.34;;;12.69;100.00
9474;BME280;8865;47.636;7.692;2022-11-15T11:50:00;97641.91;;;13.13;100.00
9474;BME280;8865;47.636;7.692;2022-11-15T11:52:33;97635.97;;;13.28;100.00
9474;BME280;8865;47.636;7.692;2022-11-15T11:55:23;97630.06;;;13.42;100.00
9474;BME280;8865;47.636;7.692;2022-11-15T12:00:26;97624.13;;;13.48;100.00
9474;BME280;8865;47.636;7.692;2022-11-15T12:06:28;97614.94;;;13.52;100.00
9474;BME280;8865;47.636;7.692;2022-11-15T12:14:45;97620.84;;;13.13;100.00
9474;BME280;8865;47.636;7.692;2022-11-15T12:17:11;97619.69;;;13.16;100.00
9474;BME280;8865;47.636;7.692;2022-11-15T12:19:39;97615.09;;;13.18;100.00
9474;BME280;8865;47.636;7.692;2022-11-15T12:22:23;97622.66;;;13.29;100.00
9474;BME280;8865;47.636;7.692;2022-11-15T12:25:07;97616.22;;;13.23;100.00
9474;BME280;8865;47.636;7.692;2022-11-15T12:30:54;97598.00;;;13.14;100.00
9474;BME280;8865;47.636;7.692;2022-11-15T12:33:39;97584.38;;;13.10;100.00
9474;BME280;8865;47.636;7.692;2022-11-15T12:36:10;97575.00;;;12.91;100.00
9474;BME280;8865;47.636;7.692;2022-11-15T12:41:33;97570.06;;;12.80;100.00
9474;BME280;8865;47.636;7.692;2022-11-15T12:44:00;97584.53;;;12.84;100.00
9474;BME280;8865;47.636;7.692;2022-11-15T13:04:47;97546.41;;;12.88;100.00
9474;BME280;8865;47.636;7.692;2022-11-15T13:10:32;97523.44;;;12.98;100.00
9474;BME280;8865;47.636;7.692;2022-11-15T13:13:04;97520.78;;;12.98;100.00
9474;BME280;8865;47.636;7.692;2022-11-15T13:15:34;97520.97;;;12.89;100.00
9474;BME280;8865;47.636;7.692;2022-11-15T13:20:52;97513.25;;;12.79;100.00
9474;BME280;8865;47.636;7.692;2022-11-15T13:23:18;97506.84;;;12.65;100.00
9474;BME280;8865;47.636;7.692;2022-11-15T13:26:03;97503.38;;;12.56;100.00
9474;BME280;8865;47.636;7.692;2022-11-15T13:31:41;97505.53;;;12.44;100.00
9474;BME280;8865;47.636;7.692;2022-11-15T13:34:27;97505.53;;;12.44;100.00
9474;BME280;8865;47.636;7.692;2022-11-15T13:36:54;97499.44;;;12.44;100.00
9474;BME280;8865;47.636;7.692;2022-11-15T13:39:31;97497.47;;;12.46;100.00
9474;BME280;8865;47.636;7.692;2022-11-15T13:41:58;97497.47;;;12.46;100.00
9474;BME280;8865;47.636;7.692;2022-11-15T13:44:27;97494.19;;;12.44;100.00
9474;BME280;8865;47.636;7.692;2022-11-15T13:47:01;97484.84;;;12.41;100.00
9474;BME280;8865;47.636;7.692;2022-11-15T13:49:32;97488.44;;;12.40;100.00
9474;BME280;8865;47.636;7.692;2022-11-15T13:52:00;97486.47;;;12.26;100.00
9474;BME280;8865;47.636;7.692;2022-11-15T13:57:01;97477.78;;;12.33;100.00
9474;BME280;8865;47.636;7.692;2022-11-15T13:59:31;97480.25;;;12.35;100.00
9474;BME280;8865;47.636;7.692;2022-11-15T14:02:47;97471.03;;;12.39;100.00
9474;BME280;8865;47.636;7.692;2022-11-15T14:04:52;97467.09;;;12.43;100.00
9474;BME280;8865;47.636;7.692;2022-11-15T14:07:24;97482.53;;;12.46;100.00
9474;BME280;8865;47.636;7.692;2022-11-15T14:09:51;97477.28;;;12.46;100.00
9474;BME280;8865;47.636;7.692;2022-11-15T14:12:49;97470.38;;;12.45;100.00
9474;BME280;8865;47.636;7.692;2022-11-15T14:15:26;97463.47;;;12.36;100.00
9474;BME280;8865;47.636;7.692;2022-11-15T14:17:53;97460.53;;;12.31;100.00
9474;BME280;8865;47.636;7.692;2022-11-15T14:20:33;97463.31;;;12.29;100.00
9474;BME280;8865;47.636;7.692;2022-11-15T14:23:46;97457.41;;;12.27;100.00
9474;BME280;8865;47.636;7.692;2022-11-15T14:25:57;97449.72;;;12.26;100.00
9474;BME280;8865;47.636;7.692;2022-11-15T14:30:54;97440.34;;;12.23;100.00
9474;BME280;8865;47.636;7.692;2022-11-15T14:35:58;97436.56;;;12.18;100.00
9474;BME280;8865;47.636;7.692;2022-11-15T14:38:25;97435.25;;;12.13;100.00
9474;BME280;8865;47.636;7.692;2022-11-15T14:40:51;97435.91;;;12.15;100.00
9474;BME280;8865;47.636;7.692;2022-11-15T14:43:17;97443.78;;;12.15;100.00
9474;BME280;8865;47.636;7.692;2022-11-15T14:45:43;97429.31;;;12.11;100.00
9474;BME280;8865;47.636;7.692;2022-11-15T14:48:09;97425.72;;;12.04;100.00
9474;BME280;8865;47.636;7.692;2022-11-15T14:50:36;97433.44;;;12.06;100.00
9474;BME280;8865;47.636;7.692;2022-11-15T14:53:02;97424.06;;;12.03;100.00
9474;BME280;8865;47.636;7.692;2022-11-15T14:55:31;97420.81;;;12.01;100.00
9474;BME280;8865;47.636;7.692;2022-11-15T14:57:59;97412.22;;;11.91;100.00
9474;BME280;8865;47.636;7.692;2022-11-15T15:00:27;97409.91;;;11.88;100.00
9474;BME280;8865;47.636;7.692;2022-11-15T15:02:55;97404.19;;;11.84;100.00
9474;BME280;8865;47.636;7.692;2022-11-15T15:07:47;97403.03;;;11.78;100.00
9474;BME280;8865;47.636;7.692;2022-11-15T15:10:14;97399.22;;;11.73;100.00
9474;BME280;8865;47.636;7.692;2022-11-15T15:12:41;97395.47;;;11.75;100.00
9474;BME280;8865;47.636;7.692;2022-11-15T15:15:25;97395.78;;;11.72;100.00
9474;BME280;8865;47.636;7.692;2022-11-15T15:17:52;97381.03;;;11.71;100.00
9474;BME280;8865;47.636;7.692;2022-11-15T15:20:18;97379.25;;;11.72;100.00
9474;BME280;8865;47.636;7.692;2022-11-15T15:22:44;97381.66;;;11.65;100.00
9474;BME280;8865;47.636;7.692;2022-11-15T15:27:44;97364.31;;;11.64;100.00
9474;BME280;8865;47.636;7.692;2022-11-15T15:30:11;97366.56;;;11.59;100.00
9474;BME280;8865;47.636;7.692;2022-11-15T15:32:36;97351.81;;;11.58;100.00
9474;BME280;8865;47.636;7.692;2022-11-15T15:35:03;97354.31;;;11.59;100.00
9474;BME280;8865;47.636;7.692;2022-11-15T15:37:29;97354.31;;;11.59;100.00
9474;BME280;8865;47.636;7.692;2022-11-15T15:39:56;97357.06;;;11.58;100.00
9474;BME280;8865;47.636;7.692;2022-11-15T15:42:23;97352.81;;;11.65;100.00
9474;BME280;8865;47.636;7.692;2022-11-15T15:44:50;97345.59;;;11.59;100.00
9474;BME280;8865;47.636;7.692;2022-11-15T15:47:21;97339.38;;;11.60;100.00
9474;BME280;8865;47.636;7.692;2022-11-15T15:49:48;97337.56;;;11.52;100.00